createdAt,value
2018-10-04T00:02:14.391Z,4.83
2018-10-04T00:04:43.506Z,5.00
2018-10-04T00:07:12.129Z,2.50
2018-10-04T00:09:40.755Z,4.87
2018-10-04T00:12:09.412Z,5.27
2018-10-04T00:14:38.271Z,6.00
2018-10-04T00:17:07.230Z,2.30
2018-10-04T00:19:36.243Z,3.83
2018-10-04T00:22:05.242Z,5.10
2018-10-04T00:24:34.175Z,3.27
2018-10-04T00:27:03.388Z,4.20
2018-10-04T00:29:32.226Z,4.53
2018-10-04T00:32:01.275Z,3.77
2018-10-04T00:34:30.393Z,3.87
2018-10-04T00:36:59.126Z,5.43
2018-10-04T00:39:27.791Z,5.23
2018-10-04T00:41:56.679Z,5.07
2018-10-04T00:44:25.849Z,2.30
2018-10-04T00:46:55.058Z,4.83
2018-10-04T00:49:23.972Z,5.63
2018-10-04T00:51:53.088Z,6.60
2018-10-04T00:54:22.025Z,8.87
2018-10-04T00:56:51.089Z,5.20
2018-10-04T00:59:20.092Z,3.40
2018-10-04T01:01:48.916Z,5.10
2018-10-04T01:04:18.035Z,3.17
2018-10-04T01:06:46.747Z,9.13
2018-10-04T01:09:15.441Z,4.00
2018-10-04T01:11:44.343Z,3.97
2018-10-04T01:14:13.069Z,3.47
2018-10-04T01:16:41.730Z,2.77
2018-10-04T01:19:10.491Z,4.03
2018-10-04T01:21:39.531Z,4.13
2018-10-04T01:24:08.355Z,3.10
2018-10-04T01:26:37.548Z,4.00
2018-10-04T01:29:06.294Z,3.27
2018-10-04T01:31:35.324Z,3.00
2018-10-04T01:34:04.570Z,3.43
2018-10-04T01:36:33.288Z,5.23
2018-10-04T01:39:01.974Z,3.20
2018-10-04T01:41:30.855Z,2.73
2018-10-04T01:43:59.711Z,4.33
2018-10-04T01:46:28.627Z,5.03
2018-10-04T01:48:57.868Z,2.50
2018-10-04T01:51:26.568Z,2.30
2018-10-04T01:53:55.355Z,3.20
2018-10-04T01:56:24.779Z,2.70
2018-10-04T01:58:53.445Z,4.37
2018-10-04T02:01:22.394Z,3.37
2018-10-04T02:03:51.340Z,6.93
2018-10-04T02:06:20.471Z,2.70
2018-10-04T02:08:49.251Z,5.00
2018-10-04T02:11:17.892Z,5.70
2018-10-04T02:13:46.866Z,5.20
2018-10-04T02:16:15.862Z,7.13
2018-10-04T02:18:44.875Z,4.13
2018-10-04T02:21:13.633Z,3.43
2018-10-04T02:23:42.536Z,4.00
2018-10-04T02:26:11.740Z,3.83
2018-10-04T02:28:40.728Z,3.13
2018-10-04T02:31:09.722Z,2.33
2018-10-04T02:33:38.767Z,5.53
2018-10-04T02:36:07.500Z,3.20
2018-10-04T02:38:36.246Z,3.37
2018-10-04T02:41:05.215Z,5.77
2018-10-04T02:43:33.880Z,3.40
2018-10-04T02:46:02.765Z,4.10
2018-10-04T02:48:32.183Z,6.47
2018-10-04T02:51:01.190Z,3.10
2018-10-04T02:53:30.151Z,2.77
2018-10-04T02:56:04.487Z,7.10
2018-10-04T02:58:33.300Z,5.53
2018-10-04T03:01:02.332Z,3.00
2018-10-04T03:03:31.467Z,5.33
2018-10-04T03:06:00.560Z,4.87
2018-10-04T03:08:29.384Z,2.97
2018-10-04T03:10:58.247Z,2.80
2018-10-04T03:13:27.010Z,7.67
2018-10-04T03:15:56.018Z,6.80
2018-10-04T03:18:24.895Z,5.83
2018-10-04T03:20:53.943Z,5.83
2018-10-04T03:23:22.756Z,5.40
2018-10-04T03:25:52.110Z,4.73
2018-10-04T03:28:21.217Z,8.00
2018-10-04T03:30:50.084Z,3.10
2018-10-04T03:33:19.256Z,3.73
2018-10-04T03:35:48.111Z,6.23
2018-10-04T03:38:16.708Z,4.20
2018-10-04T03:40:45.686Z,6.73
2018-10-04T03:43:14.306Z,4.67
2018-10-04T03:45:43.229Z,3.33
2018-10-04T03:48:12.136Z,7.87
2018-10-04T03:50:40.917Z,3.50
2018-10-04T03:53:09.599Z,6.37
2018-10-04T03:55:38.598Z,7.83
2018-10-04T03:58:07.368Z,7.47
2018-10-04T04:00:36.111Z,9.87
2018-10-04T04:03:04.854Z,10.93
2018-10-04T04:05:33.640Z,4.67
2018-10-04T04:08:02.434Z,9.47
2018-10-04T04:10:31.326Z,10.07
2018-10-04T04:12:59.993Z,6.00
2018-10-04T04:15:29.023Z,18.03
2018-10-04T04:17:57.937Z,10.27
2018-10-04T04:20:27.063Z,4.23
2018-10-04T04:22:55.882Z,6.40
2018-10-04T04:25:24.982Z,8.53
2018-10-04T04:27:53.567Z,6.80
2018-10-04T04:30:22.280Z,13.60
2018-10-04T04:32:51.365Z,8.73
2018-10-04T04:35:20.438Z,10.73
2018-10-04T04:37:49.117Z,10.80
2018-10-04T04:40:17.834Z,8.43
2018-10-04T04:42:46.662Z,24.03
2018-10-04T04:45:15.691Z,8.27
2018-10-04T04:47:44.830Z,12.77
2018-10-04T04:50:13.993Z,24.60
2018-10-04T04:52:42.817Z,13.70
2018-10-04T04:55:29.710Z,14.40
2018-10-04T04:57:59.242Z,12.83
2018-10-04T05:00:29.446Z,22.00
2018-10-04T05:02:58.618Z,13.20
2018-10-04T05:05:28.178Z,16.23
2018-10-04T05:07:58.124Z,15.10
2018-10-04T05:10:27.267Z,8.60
2018-10-04T05:12:56.626Z,7.27
2018-10-04T05:15:25.660Z,19.73
2018-10-04T05:17:54.726Z,22.37
2018-10-04T05:20:23.920Z,13.30
2018-10-04T05:22:53.159Z,10.93
2018-10-04T05:25:22.088Z,22.03
2018-10-04T05:27:51.255Z,24.57
2018-10-04T05:30:20.654Z,21.53
2018-10-04T05:32:49.822Z,19.47
2018-10-04T05:35:18.622Z,13.40
2018-10-04T05:37:47.650Z,10.60
2018-10-04T05:40:16.775Z,5.27
2018-10-04T05:42:45.413Z,7.57
2018-10-04T05:45:14.627Z,6.10
2018-10-04T05:47:43.393Z,11.00
2018-10-04T05:50:12.177Z,5.60
2018-10-04T05:52:41.382Z,10.20
2018-10-04T05:55:10.559Z,6.70
2018-10-04T05:57:39.469Z,6.97
2018-10-04T06:00:19.521Z,4.77
2018-10-04T06:02:48.516Z,14.97
2018-10-04T06:05:17.326Z,6.00
2018-10-04T06:07:46.363Z,22.17
2018-10-04T06:10:14.995Z,6.10
2018-10-04T06:12:43.716Z,7.17
2018-10-04T06:15:12.556Z,5.07
2018-10-04T06:17:41.210Z,5.80
2018-10-04T06:20:10.282Z,5.20
2018-10-04T06:22:39.154Z,7.87
2018-10-04T06:25:08.118Z,10.30
2018-10-04T06:27:36.949Z,7.00
2018-10-04T06:30:06.707Z,5.13
2018-10-04T06:32:35.695Z,5.30
2018-10-04T06:35:04.654Z,8.83
2018-10-04T06:37:33.829Z,7.07
2018-10-04T06:40:02.587Z,5.63
2018-10-04T06:42:31.276Z,7.53
2018-10-04T06:45:00.558Z,4.83
2018-10-04T06:47:29.471Z,5.40
2018-10-04T06:49:58.368Z,5.23
2018-10-04T06:52:27.688Z,4.57
2018-10-04T06:54:56.740Z,5.70
2018-10-04T06:57:25.467Z,5.50
2018-10-04T06:59:54.580Z,3.90
2018-10-04T07:02:23.738Z,5.13
2018-10-04T07:04:52.373Z,7.23
2018-10-04T07:07:21.880Z,2.93
2018-10-04T07:09:50.450Z,5.47
2018-10-04T07:12:19.130Z,2.43
2018-10-04T07:14:48.072Z,5.57
2018-10-04T07:17:17.002Z,3.50
2018-10-04T07:19:46.186Z,6.30
2018-10-04T07:22:15.025Z,3.90
2018-10-04T07:24:43.719Z,2.63
2018-10-04T07:27:12.461Z,5.97
2018-10-04T07:29:41.799Z,5.47
2018-10-04T07:32:10.589Z,2.67
2018-10-04T07:34:39.450Z,4.70
2018-10-04T07:37:08.590Z,4.77
2018-10-04T07:39:37.202Z,4.57
2018-10-04T07:42:05.959Z,3.10
2018-10-04T07:44:34.974Z,4.80
2018-10-04T07:47:03.790Z,7.37
2018-10-04T07:49:32.582Z,7.20
2018-10-04T07:52:01.662Z,3.37
2018-10-04T07:54:30.718Z,10.40
2018-10-04T07:56:59.830Z,3.23
2018-10-04T07:59:28.587Z,5.47
2018-10-04T08:01:57.496Z,8.27
2018-10-04T08:04:26.637Z,2.83
2018-10-04T08:06:55.936Z,3.53
2018-10-04T08:09:24.575Z,3.10
2018-10-04T08:11:53.180Z,4.37
2018-10-04T08:14:22.034Z,3.87
2018-10-04T08:16:50.900Z,3.37
2018-10-04T08:19:19.804Z,3.83
2018-10-04T08:21:48.670Z,7.07
2018-10-04T08:24:17.570Z,7.30
2018-10-04T08:26:46.475Z,4.87
2018-10-04T08:29:15.588Z,7.33
2018-10-04T08:31:44.379Z,3.53
2018-10-04T08:34:13.468Z,3.20
2018-10-04T08:36:42.623Z,5.90
2018-10-04T08:39:11.591Z,5.37
2018-10-04T08:41:40.453Z,3.53
2018-10-04T08:44:09.367Z,3.47
2018-10-04T08:46:38.534Z,4.80
2018-10-04T08:49:07.494Z,4.00
2018-10-04T08:51:41.860Z,6.63
2018-10-04T08:54:10.845Z,3.27
2018-10-04T08:56:39.932Z,9.57
2018-10-04T08:59:09.271Z,4.07
2018-10-04T09:01:38.502Z,5.40
2018-10-04T09:04:07.339Z,7.00
2018-10-04T09:06:36.648Z,5.80
2018-10-04T09:09:06.622Z,6.07
2018-10-04T09:11:35.378Z,3.43
2018-10-04T09:14:04.285Z,12.47
2018-10-04T09:16:33.361Z,3.73
2018-10-04T09:19:02.318Z,6.67
2018-10-04T09:21:31.451Z,3.83
2018-10-04T09:24:00.471Z,3.20
2018-10-04T09:26:29.284Z,4.23
2018-10-04T09:29:03.189Z,4.20
2018-10-04T09:31:36.912Z,6.70
2018-10-04T09:34:06.688Z,4.00
2018-10-04T09:36:35.683Z,3.27
2018-10-04T09:39:06.391Z,2.43
2018-10-04T09:41:35.215Z,2.77
2018-10-04T09:44:03.990Z,3.63
2018-10-04T09:46:33.342Z,3.37
2018-10-04T09:49:02.123Z,5.30
2018-10-04T09:51:36.780Z,3.20
2018-10-04T09:54:06.027Z,10.77
2018-10-04T09:56:40.523Z,4.40
2018-10-04T09:59:09.554Z,3.17
2018-10-04T10:01:43.894Z,8.90
2018-10-04T10:04:12.666Z,2.47
2018-10-04T10:06:41.358Z,2.53
2018-10-04T10:09:10.363Z,4.17
2018-10-04T10:11:39.215Z,3.33
2018-10-04T10:14:08.040Z,2.70
2018-10-04T10:16:37.046Z,4.93
2018-10-04T10:19:06.021Z,3.03
2018-10-04T10:21:34.878Z,2.50
2018-10-04T10:24:03.967Z,6.10
2018-10-04T10:26:33.008Z,2.77
2018-10-04T10:29:02.047Z,3.20
2018-10-04T10:31:34.990Z,6.23
2018-10-04T10:34:03.747Z,4.83
2018-10-04T10:36:32.544Z,2.13
2018-10-04T10:39:01.675Z,3.60
2018-10-04T10:41:30.319Z,3.03
2018-10-04T10:43:59.413Z,3.83
2018-10-04T10:46:28.119Z,2.93
2018-10-04T10:48:56.754Z,5.40
2018-10-04T10:51:25.682Z,2.67
2018-10-04T10:53:54.358Z,6.50
2018-10-04T10:56:23.175Z,4.10
2018-10-04T10:58:52.365Z,1.87
2018-10-04T11:01:21.650Z,2.80
2018-10-04T11:03:50.419Z,5.23
2018-10-04T11:06:19.358Z,2.87
2018-10-04T11:08:48.479Z,3.30
2018-10-04T11:11:17.155Z,3.73
2018-10-04T11:13:45.829Z,5.80
2018-10-04T11:16:14.694Z,4.03
2018-10-04T11:18:43.715Z,3.17
2018-10-04T11:21:12.708Z,7.13
2018-10-04T11:23:41.530Z,5.60
2018-10-04T11:26:10.679Z,1.40
2018-10-04T11:28:39.382Z,3.03
2018-10-04T11:31:09.255Z,3.60
2018-10-04T11:33:38.472Z,4.13
2018-10-04T11:36:07.544Z,3.13
2018-10-04T11:38:36.587Z,8.00
2018-10-04T11:41:05.389Z,3.53
2018-10-04T11:43:34.429Z,2.70
2018-10-04T11:46:04.902Z,5.10
2018-10-04T11:48:35.565Z,2.30
2018-10-04T11:51:04.670Z,3.67
2018-10-04T11:53:33.842Z,3.30
2018-10-04T11:56:02.786Z,5.73
2018-10-04T11:58:32.022Z,2.27
2018-10-04T12:01:02.140Z,4.00
2018-10-04T12:03:31.252Z,1.63
2018-10-04T12:06:00.457Z,7.23
2018-10-04T12:08:29.321Z,2.70
2018-10-04T12:10:58.211Z,3.43
2018-10-04T12:13:27.442Z,4.67
2018-10-04T12:15:56.098Z,2.30
2018-10-04T12:18:24.911Z,2.93
2018-10-04T12:20:54.059Z,4.23
2018-10-04T12:23:22.789Z,2.00
2018-10-04T12:25:51.570Z,3.83
2018-10-04T12:28:20.796Z,3.07
2018-10-04T12:30:50.274Z,7.20
2018-10-04T12:33:18.838Z,4.10
2018-10-04T12:35:47.774Z,2.83
2018-10-04T12:38:16.995Z,3.27
2018-10-04T12:40:45.740Z,3.57
2018-10-04T12:43:14.958Z,3.00
2018-10-04T12:45:43.713Z,5.33
2018-10-04T12:48:12.464Z,5.47
2018-10-04T12:50:41.699Z,3.23
2018-10-04T12:53:10.582Z,8.57
2018-10-04T12:55:39.507Z,5.47
2018-10-04T12:58:08.628Z,4.07
2018-10-04T13:00:37.604Z,4.10
2018-10-04T13:03:06.204Z,2.93
2018-10-04T13:05:35.611Z,5.10
2018-10-04T13:08:04.477Z,2.90
2018-10-04T13:10:33.272Z,3.57
2018-10-04T13:13:01.999Z,3.43
2018-10-04T13:15:30.719Z,6.83
2018-10-04T13:18:00.239Z,3.60
2018-10-04T13:20:29.146Z,3.80
2018-10-04T13:22:58.204Z,2.40
2018-10-04T13:25:27.128Z,3.23
2018-10-04T13:27:56.047Z,3.93
2018-10-04T13:30:24.837Z,2.80
2018-10-04T13:32:53.458Z,3.60
2018-10-04T13:35:22.086Z,5.70
2018-10-04T13:37:50.907Z,6.17
2018-10-04T13:40:20.005Z,3.83
2018-10-04T13:42:48.706Z,3.60
2018-10-04T13:45:17.375Z,1.97
2018-10-04T13:47:46.111Z,4.97
2018-10-04T13:50:15.076Z,6.47
2018-10-04T13:52:43.730Z,4.73
2018-10-04T13:55:12.706Z,2.77
2018-10-04T13:57:41.905Z,3.97
2018-10-04T14:00:11.699Z,8.57
2018-10-04T14:02:40.684Z,9.53
2018-10-04T14:05:09.859Z,4.40
2018-10-04T14:07:38.913Z,2.97
2018-10-04T14:10:07.777Z,9.27
2018-10-04T14:12:36.423Z,4.47
2018-10-04T14:15:05.183Z,7.93
2018-10-04T14:17:33.853Z,3.40
2018-10-04T14:20:02.651Z,5.90
2018-10-04T14:22:31.432Z,7.30
2018-10-04T14:25:00.451Z,5.23
2018-10-04T14:27:29.781Z,5.97
2018-10-04T14:29:58.768Z,7.57
2018-10-04T14:32:27.790Z,5.50
2018-10-04T14:34:56.556Z,6.53
2018-10-04T14:37:25.258Z,3.80
2018-10-04T14:39:54.222Z,8.70
2018-10-04T14:42:22.982Z,7.67
2018-10-04T14:44:51.618Z,7.17
2018-10-04T14:47:20.319Z,4.33
2018-10-04T14:49:49.330Z,4.77
2018-10-04T14:52:18.340Z,4.87
2018-10-04T14:54:47.424Z,3.47
2018-10-04T14:57:16.258Z,6.50
2018-10-04T14:59:45.220Z,3.60
2018-10-04T15:02:14.031Z,6.97
2018-10-04T15:04:42.810Z,5.73
2018-10-04T15:07:11.667Z,21.10
2018-10-04T15:09:40.626Z,5.53
2018-10-04T15:12:09.283Z,8.23
2018-10-04T15:14:38.042Z,6.60
2018-10-04T15:17:06.935Z,4.43
2018-10-04T15:19:35.774Z,5.07
2018-10-04T15:22:04.692Z,8.53
2018-10-04T15:24:33.666Z,5.67
2018-10-04T15:27:02.345Z,7.80
2018-10-04T15:29:30.971Z,11.00
2018-10-04T15:32:00.126Z,6.23
2018-10-04T15:34:29.563Z,21.60
2018-10-04T15:36:58.440Z,4.90
2018-10-04T15:39:27.259Z,12.27
2018-10-04T15:41:55.888Z,5.97
2018-10-04T15:44:24.643Z,9.30
2018-10-04T15:46:53.388Z,15.87
2018-10-04T15:49:22.229Z,8.37
2018-10-04T15:51:51.433Z,9.23
2018-10-04T15:54:20.668Z,12.53
2018-10-04T15:56:49.840Z,17.33
2018-10-04T15:59:19.240Z,12.37
2018-10-04T16:01:48.093Z,9.40
2018-10-04T16:04:17.267Z,14.30
2018-10-04T16:06:46.216Z,14.03
2018-10-04T16:09:15.224Z,19.77
2018-10-04T16:11:43.875Z,14.77
2018-10-04T16:14:12.702Z,19.47
2018-10-04T16:16:41.641Z,18.27
2018-10-04T16:19:10.563Z,15.47
2018-10-04T16:21:39.679Z,16.83
2018-10-04T16:24:08.518Z,15.00
2018-10-04T16:26:37.946Z,13.63
2018-10-04T16:29:07.005Z,13.23
2018-10-04T16:31:35.844Z,16.63
2018-10-04T16:34:04.654Z,15.23
2018-10-04T16:36:33.789Z,16.43
2018-10-04T16:39:02.803Z,15.17
2018-10-04T16:41:32.095Z,18.80
2018-10-04T16:44:01.039Z,18.00
2018-10-04T16:46:29.918Z,15.60
2018-10-04T16:48:59.014Z,12.73
2018-10-04T16:51:28.428Z,14.63
2018-10-04T16:53:57.693Z,20.00
2018-10-04T16:56:26.815Z,21.63
2018-10-04T16:58:55.829Z,30.73
2018-10-04T17:01:25.007Z,15.27
2018-10-04T17:03:54.191Z,19.40
2018-10-04T17:06:23.504Z,18.67
2018-10-04T17:08:52.303Z,16.77
2018-10-04T17:11:21.184Z,12.13
2018-10-04T17:13:50.119Z,10.23
2018-10-04T17:16:19.054Z,18.30
2018-10-04T17:18:47.990Z,11.07
2018-10-04T17:21:17.350Z,11.37
2018-10-04T17:23:46.758Z,13.00
2018-10-04T17:26:15.959Z,11.77
2018-10-04T17:28:45.252Z,11.23
2018-10-04T17:31:14.332Z,17.43
2018-10-04T17:33:43.364Z,15.97
2018-10-04T17:36:12.462Z,8.93
2018-10-04T17:38:41.217Z,10.90
2018-10-04T17:41:09.870Z,9.63
2018-10-04T17:43:38.671Z,11.17
2018-10-04T17:46:08.232Z,8.93
2018-10-04T17:48:37.242Z,9.00
2018-10-04T17:51:06.352Z,18.47
2018-10-04T17:53:35.466Z,13.00
2018-10-04T17:56:05.519Z,12.40
2018-10-04T17:58:34.719Z,14.50
2018-10-04T18:01:03.962Z,15.83
2018-10-04T18:03:33.139Z,12.83
2018-10-04T18:06:01.950Z,15.03
2018-10-04T18:08:31.823Z,15.33
2018-10-04T18:11:00.799Z,15.60
2018-10-04T18:13:29.684Z,18.63
2018-10-04T18:15:59.154Z,19.53
2018-10-04T18:18:28.362Z,13.67
2018-10-04T18:20:57.556Z,17.07
2018-10-04T18:23:27.112Z,14.70
2018-10-04T18:25:56.272Z,12.93
2018-10-04T18:28:25.619Z,14.03
2018-10-04T18:30:54.895Z,16.20
2018-10-04T18:33:24.034Z,14.17
2018-10-04T18:35:53.197Z,9.00
2018-10-04T18:38:22.604Z,18.17
2018-10-04T18:40:51.539Z,17.67
2018-10-04T18:43:20.606Z,14.80
2018-10-04T18:45:50.583Z,11.83
2018-10-04T18:48:19.860Z,15.40
2018-10-04T18:50:49.177Z,19.07
2018-10-04T18:53:18.618Z,12.00
2018-10-04T18:55:47.732Z,18.17
2018-10-04T18:58:17.056Z,12.40
2018-10-04T19:00:46.655Z,17.80
2018-10-04T19:03:15.857Z,10.97
2018-10-04T19:05:44.830Z,19.03
2018-10-04T19:08:14.136Z,12.93
2018-10-04T19:10:42.905Z,13.13
2018-10-04T19:13:11.651Z,12.37
2018-10-04T19:15:41.108Z,12.33
2018-10-04T19:18:10.173Z,14.07
2018-10-04T19:20:39.285Z,13.73
2018-10-04T19:23:08.664Z,8.67
2018-10-04T19:25:37.692Z,8.07
2018-10-04T19:28:06.778Z,10.07
2018-10-04T19:30:36.344Z,15.20
2018-10-04T19:33:05.516Z,12.47
2018-10-04T19:35:34.692Z,9.53
2018-10-04T19:38:03.786Z,12.07
2018-10-04T19:40:32.572Z,14.93
2018-10-04T19:43:01.368Z,11.10
2018-10-04T19:45:30.415Z,9.53
2018-10-04T19:47:59.852Z,11.57
2018-10-04T19:50:28.654Z,7.67
2018-10-04T19:52:57.856Z,17.37
2018-10-04T19:55:26.583Z,9.27
2018-10-04T19:57:55.495Z,9.87
2018-10-04T20:00:24.900Z,5.83
2018-10-04T20:02:53.641Z,9.97
2018-10-04T20:05:22.547Z,12.30
2018-10-04T20:07:51.355Z,7.90
2018-10-04T20:10:20.129Z,14.33
2018-10-04T20:12:48.814Z,8.40
2018-10-04T20:15:17.907Z,12.70
2018-10-04T20:17:46.697Z,10.33
2018-10-04T20:20:15.476Z,10.97
2018-10-04T20:22:44.702Z,9.30
2018-10-04T20:25:13.370Z,12.40
2018-10-04T20:27:42.261Z,14.63
2018-10-04T20:30:11.581Z,12.23
2018-10-04T20:32:40.659Z,18.93
2018-10-04T20:35:09.718Z,12.90
2018-10-04T20:37:38.631Z,16.50
2018-10-04T20:40:07.283Z,12.30
2018-10-04T20:42:36.067Z,17.07
2018-10-04T20:45:05.385Z,15.07
2018-10-04T20:47:34.230Z,20.23
2018-10-04T20:50:03.141Z,19.03
2018-10-04T20:52:32.214Z,17.30
2018-10-04T20:55:01.023Z,13.40
2018-10-04T20:57:29.772Z,10.10
2018-10-04T20:59:58.886Z,19.93
2018-10-04T21:02:27.722Z,11.87
2018-10-04T21:04:56.615Z,9.77
2018-10-04T21:07:25.488Z,19.47
2018-10-04T21:09:54.187Z,11.77
2018-10-04T21:12:22.815Z,10.63
2018-10-04T21:14:51.828Z,7.53
2018-10-04T21:17:20.703Z,10.77
2018-10-04T21:19:49.648Z,7.07
2018-10-04T21:22:18.756Z,15.47
2018-10-04T21:24:47.411Z,14.37
2018-10-04T21:27:16.372Z,16.03
2018-10-04T21:29:45.587Z,12.07
2018-10-04T21:32:14.651Z,8.93
2018-10-04T21:34:43.450Z,12.50
2018-10-04T21:37:12.671Z,13.13
2018-10-04T21:39:41.276Z,9.07
2018-10-04T21:42:09.944Z,12.37
2018-10-04T21:44:39.242Z,14.27
2018-10-04T21:47:08.119Z,12.23
2018-10-04T21:49:36.887Z,15.67
2018-10-04T21:52:06.142Z,11.07
2018-10-04T21:54:35.233Z,9.33
2018-10-04T21:57:04.375Z,11.97
2018-10-04T21:59:33.475Z,10.73
2018-10-04T22:02:02.135Z,10.43
2018-10-04T22:04:31.153Z,10.67
2018-10-04T22:06:59.986Z,13.20
2018-10-04T22:09:28.580Z,12.63
2018-10-04T22:11:57.259Z,8.47
2018-10-04T22:14:26.328Z,11.93
2018-10-04T22:16:55.711Z,11.33
2018-10-04T22:19:24.564Z,13.30
2018-10-04T22:21:53.598Z,14.60
2018-10-04T22:24:22.678Z,14.07
2018-10-04T22:26:51.439Z,7.53
2018-10-04T22:29:20.559Z,11.57
2018-10-04T22:31:49.435Z,8.43
2018-10-04T22:34:18.194Z,9.30
2018-10-04T22:36:47.083Z,8.13
2018-10-04T22:39:15.796Z,14.70
2018-10-04T22:41:44.542Z,8.70
2018-10-04T22:44:13.760Z,12.97
2018-10-04T22:46:42.674Z,10.87
2018-10-04T22:49:11.474Z,7.07
2018-10-04T22:51:40.714Z,8.27
2018-10-04T22:54:09.515Z,7.80
2018-10-04T22:56:38.378Z,5.83
2018-10-04T22:59:07.965Z,10.20
2018-10-04T23:01:36.770Z,9.70
2018-10-04T23:04:05.835Z,7.23
2018-10-04T23:06:34.910Z,6.20
2018-10-04T23:09:03.911Z,8.80
2018-10-04T23:11:32.543Z,14.67
2018-10-04T23:14:01.754Z,11.23
2018-10-04T23:16:30.813Z,7.30
2018-10-04T23:18:59.905Z,8.53
2018-10-04T23:21:28.927Z,7.10
2018-10-04T23:23:57.800Z,7.00
2018-10-04T23:26:26.597Z,8.90
2018-10-04T23:28:55.729Z,7.53
2018-10-04T23:31:24.650Z,6.00
2018-10-04T23:33:53.571Z,6.33
2018-10-04T23:36:22.951Z,7.87
2018-10-04T23:38:51.615Z,6.87
2018-10-04T23:41:20.241Z,7.93
2018-10-04T23:43:48.997Z,10.70
2018-10-04T23:46:18.036Z,12.20
2018-10-04T23:48:46.922Z,7.37
2018-10-04T23:51:15.891Z,11.50
2018-10-04T23:53:44.898Z,10.47
2018-10-04T23:56:13.622Z,7.73
2018-10-04T23:58:42.631Z,6.50
